Morning Linda — 3ETI — position and weather

sailwx.info

Track history (hours):
 
Tides and Currents Weather Stations Pressure Air Temp Water Temp Dewpoint Dewpoint Depression Visibility Wind Speed Wind Dir Waves Ship Positions

Morning Linda

Last reported at 2017-Oct-10 22:28 UTC. Time now 2017-Oct-23 04:34 UTC.
Position N 01°15' E 104°07'.
Warning: this ship's position is 12 days out of date.

Length 232 m; draft 9.2 m.

MMSI: 370567000.

Date/timePositionNaut miles runAvg speedWind from/ knotsBaromVisibWave heightAir tempDewpointWater temp
2017-Oct-10 22:28N 01°15' E 104°07'2 3.9
2017-Oct-10 22:00N 01°15' E 104°06'2 3.8
2017-Oct-10 21:31N 01°15' E 104°04'2 4.0
2017-Oct-10 21:00N 01°15' E 104°02'1 0.2
2017-Oct-10 14:00N 01°15' E 104°00'815.9
2017-Oct-10 13:30N 01°12' E 103°53'815.9
2017-Oct-10 13:01N 01°08' E 103°46'816.8
2017-Oct-10 12:30N 01°03' E 103°39'713.5
2017-Oct-10 12:00N 01°06' E 103°33'714.3
2017-Oct-10 11:30N 01°09' E 103°27'814.6
2017-Oct-10 10:58N 01°14' E 103°21'  
Track history (hours):
 
Tides and Currents Weather Stations Pressure Air Temp Water Temp Dewpoint Dewpoint Depression Visibility Wind Speed Wind Dir Waves Ship Positions

Morning Linda

Last reported at 2017-Oct-10 22:28 UTC. Time now 2017-Oct-23 04:34 UTC.
Position N 01°15' E 104°07'.
Warning: this ship's position is 12 days out of date.

Length 232 m; draft 9.2 m.

MMSI: 370567000.

Date/timePositionNaut miles runAvg speedWind from/ knotsBaromVisibWave heightAir tempDewpointWater temp
2017-Oct-10 22:28N 01°15' E 104°07'2 3.9
2017-Oct-10 22:00N 01°15' E 104°06'2 3.8
2017-Oct-10 21:31N 01°15' E 104°04'2 4.0
2017-Oct-10 21:00N 01°15' E 104°02'1 0.2
2017-Oct-10 14:00N 01°15' E 104°00'815.9
2017-Oct-10 13:30N 01°12' E 103°53'815.9
2017-Oct-10 13:01N 01°08' E 103°46'816.8
2017-Oct-10 12:30N 01°03' E 103°39'713.5
2017-Oct-10 12:00N 01°06' E 103°33'714.3
2017-Oct-10 11:30N 01°09' E 103°27'814.6
2017-Oct-10 10:58N 01°14' E 103°21'  

Dump ship's entire track history